createdAt,value
2022-12-11T00:00:18.590Z,12.52
2022-12-11T00:05:43.958Z,15.37
2022-12-11T00:10:51.378Z,15.35
2022-12-11T00:16:01.101Z,15.07
2022-12-11T00:21:07.886Z,14.63
2022-12-11T00:26:16.878Z,14.27
2022-12-11T00:31:26.400Z,13.90
2022-12-11T00:36:31.871Z,13.55
2022-12-11T00:41:38.018Z,12.93
2022-12-11T00:46:45.945Z,12.30
2022-12-11T00:51:51.399Z,11.55
2022-12-11T00:56:58.302Z,12.43
2022-12-11T01:02:06.411Z,13.05
2022-12-11T01:07:11.715Z,13.37
2022-12-11T01:12:17.259Z,11.70
2022-12-11T01:17:25.372Z,11.18
2022-12-11T01:22:30.625Z,11.53
2022-12-11T01:27:35.963Z,13.88
2022-12-11T01:32:44.040Z,13.83
2022-12-11T01:37:49.292Z,11.77
2022-12-11T01:42:54.609Z,10.73
2022-12-11T01:48:05.349Z,10.63
2022-12-11T01:53:14.911Z,9.50
2022-12-11T01:58:21.689Z,11.80
2022-12-11T02:03:29.592Z,11.32
2022-12-11T02:08:35.079Z,12.27
2022-12-11T02:13:44.099Z,12.00
2022-12-11T02:19:01.668Z,12.18
2022-12-11T02:24:18.464Z,11.43
2022-12-11T02:29:33.291Z,11.98
2022-12-11T02:34:43.932Z,14.25
2022-12-11T02:39:51.251Z,12.30
2022-12-11T02:45:00.762Z,12.93
2022-12-11T02:50:12.619Z,12.20
2022-12-11T02:55:19.450Z,11.40
2022-12-11T03:00:27.281Z,11.43
2022-12-11T03:05:33.217Z,11.57
2022-12-11T03:10:38.550Z,11.00
2022-12-11T03:16:05.821Z,11.70
2022-12-11T03:21:17.341Z,12.75
2022-12-11T03:26:23.794Z,9.98
2022-12-11T03:31:37.350Z,11.50
2022-12-11T03:36:44.574Z,12.93
2022-12-11T03:41:51.875Z,12.57
2022-12-11T03:47:02.723Z,12.15
2022-12-11T03:52:09.070Z,12.95
2022-12-11T03:57:18.983Z,12.47
2022-12-11T04:02:26.889Z,12.07
2022-12-11T04:07:32.230Z,12.20
2022-12-11T04:12:37.481Z,13.02
2022-12-11T04:17:57.764Z,13.02
2022-12-11T04:23:15.770Z,11.23
2022-12-11T04:28:20.968Z,12.75
2022-12-11T04:33:28.844Z,12.43
2022-12-11T04:38:34.099Z,12.52
2022-12-11T04:43:39.482Z,10.77
2022-12-11T04:48:53.785Z,12.53
2022-12-11T04:54:01.886Z,11.70
2022-12-11T04:59:07.396Z,12.93
2022-12-11T05:04:15.289Z,10.50
2022-12-11T05:09:21.523Z,10.20
2022-12-11T05:14:27.577Z,10.20
2022-12-11T05:19:35.584Z,10.80
2022-12-11T05:24:40.838Z,10.13
2022-12-11T05:29:46.534Z,10.75
2022-12-11T05:34:54.522Z,11.35
2022-12-11T05:39:59.806Z,12.00
2022-12-11T05:45:05.129Z,11.45
2022-12-11T05:50:13.494Z,11.97
2022-12-11T05:55:18.950Z,9.20
2022-12-11T06:00:24.192Z,10.57
2022-12-11T06:05:32.225Z,10.47
2022-12-11T06:10:37.582Z,10.38
2022-12-11T06:15:42.937Z,9.60
2022-12-11T06:20:50.864Z,11.55
2022-12-11T06:25:56.153Z,12.27
2022-12-11T06:31:02.177Z,10.23
2022-12-11T06:36:12.408Z,11.30
2022-12-11T06:41:17.747Z,10.90
2022-12-11T06:46:23.510Z,10.77
2022-12-11T06:51:32.851Z,9.15
2022-12-11T06:56:38.124Z,10.73
2022-12-11T07:01:43.663Z,10.95
2022-12-11T07:06:51.973Z,11.27
2022-12-11T07:11:57.312Z,10.32
2022-12-11T07:17:02.949Z,10.20
2022-12-11T07:22:11.144Z,12.00
2022-12-11T07:27:16.653Z,11.40
2022-12-11T07:32:22.261Z,10.10
2022-12-11T07:37:30.175Z,10.80
2022-12-11T07:42:35.979Z,10.82
2022-12-11T07:47:41.894Z,12.53
2022-12-11T07:52:50.324Z,10.40
2022-12-11T07:57:56.114Z,9.20
2022-12-11T08:03:01.577Z,9.90
2022-12-11T08:08:09.628Z,9.20
2022-12-11T08:13:15.433Z,8.23
2022-12-11T08:18:20.747Z,9.05
2022-12-11T08:23:28.591Z,9.07
2022-12-11T08:28:34.187Z,8.50
2022-12-11T08:33:41.612Z,8.88
2022-12-11T08:38:49.836Z,8.93
2022-12-11T08:43:57.586Z,8.15
2022-12-11T08:49:03.137Z,8.50
2022-12-11T08:54:12.739Z,7.60
2022-12-11T08:59:18.505Z,8.35
2022-12-11T09:04:24.538Z,8.47
2022-12-11T09:09:32.530Z,7.43
2022-12-11T09:14:37.881Z,8.57
2022-12-11T09:19:43.127Z,8.18
2022-12-11T09:24:52.823Z,8.00
2022-12-11T09:29:58.442Z,8.10
2022-12-11T09:35:04.625Z,7.70
2022-12-11T09:40:17.201Z,6.83
2022-12-11T09:45:24.071Z,8.13
2022-12-11T09:50:31.424Z,8.15
2022-12-11T09:55:49.063Z,8.07
2022-12-11T10:01:01.842Z,8.23
2022-12-11T10:06:15.521Z,7.40
2022-12-11T10:12:00.404Z,7.80
2022-12-11T10:17:10.785Z,7.30
2022-12-11T10:22:23.563Z,8.83
2022-12-11T10:27:34.619Z,8.48
2022-12-11T10:32:51.962Z,8.47
2022-12-11T10:37:59.508Z,8.63
2022-12-11T10:43:07.567Z,9.35
2022-12-11T10:48:14.328Z,9.60
2022-12-11T10:53:24.372Z,9.25
2022-12-11T10:58:35.444Z,9.60
2022-12-11T11:03:55.373Z,10.23
2022-12-11T11:09:03.155Z,10.07
2022-12-11T11:14:17.702Z,9.77
2022-12-11T11:19:27.394Z,11.73
2022-12-11T11:24:38.086Z,9.97
2022-12-11T11:29:52.800Z,9.93
2022-12-11T11:35:09.303Z,9.20
2022-12-11T11:40:22.214Z,10.50
2022-12-11T11:45:36.107Z,10.15
2022-12-11T11:50:50.539Z,11.30
2022-12-11T11:56:06.522Z,12.30
2022-12-11T12:01:20.677Z,11.00
2022-12-11T12:06:37.546Z,10.47
2022-12-11T12:11:49.562Z,10.27
2022-12-11T12:17:08.442Z,9.60
2022-12-11T12:22:30.836Z,12.20
2022-12-11T12:27:53.029Z,13.15
2022-12-11T12:33:17.678Z,16.20
2022-12-11T12:38:29.718Z,11.07
2022-12-11T12:43:59.984Z,9.87
2022-12-11T12:49:13.558Z,10.63
2022-12-11T12:54:21.315Z,10.90
2022-12-11T12:59:28.823Z,11.40
2022-12-11T13:05:01.746Z,11.88
2022-12-11T13:10:24.599Z,11.23
2022-12-11T13:15:34.138Z,11.50
2022-12-11T13:20:51.226Z,12.05
2022-12-11T13:26:03.968Z,12.30
2022-12-11T13:31:32.965Z,10.48
2022-12-11T13:36:42.775Z,12.50
2022-12-11T13:41:55.167Z,12.05
2022-12-11T13:47:03.172Z,11.88
2022-12-11T13:52:19.778Z,11.50
2022-12-11T13:57:28.498Z,12.65
2022-12-11T14:02:38.388Z,11.23
2022-12-11T14:07:51.748Z,12.25
2022-12-11T14:13:02.377Z,11.68
2022-12-11T14:18:08.391Z,12.50
2022-12-11T14:23:22.128Z,11.82
2022-12-11T14:28:30.652Z,12.60
2022-12-11T14:33:40.260Z,13.18
2022-12-11T14:38:52.220Z,11.82
2022-12-11T14:44:01.685Z,11.93
2022-12-11T14:49:15.059Z,12.45
2022-12-11T14:54:30.060Z,12.90
2022-12-11T14:59:41.717Z,11.90
2022-12-11T15:04:47.101Z,12.80
2022-12-11T15:09:55.110Z,12.00
2022-12-11T15:15:06.063Z,11.00
2022-12-11T15:20:23.404Z,11.43
2022-12-11T15:25:33.260Z,11.38
2022-12-11T15:30:38.605Z,11.82
2022-12-11T15:35:57.137Z,10.87
2022-12-11T15:41:06.217Z,11.13
2022-12-11T15:46:11.670Z,11.67
2022-12-11T15:51:17.676Z,11.00
2022-12-11T15:56:25.635Z,12.57
2022-12-11T16:01:31.044Z,12.10
2022-12-11T16:06:36.883Z,14.85
2022-12-11T16:11:44.932Z,13.27
2022-12-11T16:16:50.348Z,12.95
2022-12-11T16:21:55.586Z,12.00
2022-12-11T16:27:03.699Z,12.50
2022-12-11T16:32:10.087Z,13.90
2022-12-11T16:37:15.790Z,19.33
2022-12-11T16:42:23.694Z,26.90
2022-12-11T16:47:28.945Z,19.88
2022-12-11T16:52:34.934Z,21.03
2022-12-11T16:57:43.083Z,18.73
2022-12-11T17:02:48.436Z,13.03
2022-12-11T17:07:53.993Z,11.88
2022-12-11T17:13:01.902Z,12.20
2022-12-11T17:18:07.249Z,10.97
2022-12-11T17:23:13.537Z,11.65
2022-12-11T17:28:21.456Z,10.57
2022-12-11T17:33:27.110Z,11.50
2022-12-11T17:38:32.703Z,10.02
2022-12-11T17:43:40.611Z,10.60
2022-12-11T17:48:45.887Z,11.35
2022-12-11T17:53:51.203Z,11.83
2022-12-11T17:59:00.733Z,13.18
2022-12-11T18:04:06.738Z,10.65
2022-12-11T18:09:13.534Z,9.70
2022-12-11T18:14:21.974Z,9.80
2022-12-11T18:19:27.969Z,10.03
2022-12-11T18:24:33.435Z,10.77
2022-12-11T18:29:41.320Z,11.05
2022-12-11T18:34:47.112Z,9.83
2022-12-11T18:39:52.555Z,9.23
2022-12-11T18:45:00.544Z,9.60
2022-12-11T18:50:08.252Z,10.10
2022-12-11T18:55:13.942Z,9.43
2022-12-11T19:00:22.670Z,9.83
2022-12-11T19:05:29.681Z,10.02
2022-12-11T19:10:35.012Z,9.93
2022-12-11T19:15:47.219Z,9.38
2022-12-11T19:20:59.328Z,9.98
2022-12-11T19:26:12.254Z,9.70
2022-12-11T19:31:22.489Z,8.88
2022-12-11T19:36:34.924Z,10.40
2022-12-11T19:41:40.253Z,9.90
2022-12-11T19:46:48.295Z,8.60
2022-12-11T19:51:53.900Z,10.60
2022-12-11T19:56:59.206Z,11.25
2022-12-11T20:02:07.128Z,10.77
2022-12-11T20:07:12.490Z,11.80
2022-12-11T20:12:17.786Z,10.85
2022-12-11T20:17:25.739Z,11.10
2022-12-11T20:22:31.153Z,12.88
2022-12-11T20:27:37.424Z,13.43
2022-12-11T20:32:45.786Z,14.30
2022-12-11T20:37:51.127Z,12.48
2022-12-11T20:42:56.483Z,10.77
2022-12-11T20:48:05.190Z,11.68
2022-12-11T20:53:10.916Z,10.63
2022-12-11T20:58:16.203Z,12.05
2022-12-11T21:03:24.208Z,12.38
2022-12-11T21:08:29.728Z,11.97
2022-12-11T21:13:36.844Z,12.00
2022-12-11T21:18:46.617Z,12.47
2022-12-11T21:23:52.451Z,13.65
2022-12-11T21:28:57.753Z,13.10
2022-12-11T21:34:05.937Z,12.63
2022-12-11T21:39:12.273Z,12.75
2022-12-11T21:49:46.060Z,12.60
2022-12-11T21:54:51.792Z,13.15
2022-12-11T21:59:57.081Z,13.87
2022-12-11T22:05:05.515Z,13.25
2022-12-11T22:10:12.044Z,13.17
2022-12-11T22:15:17.333Z,13.77
2022-12-11T22:20:25.207Z,11.93
2022-12-11T22:25:30.675Z,12.27
2022-12-11T22:30:36.056Z,12.95
2022-12-11T22:35:44.009Z,12.73
2022-12-11T22:40:49.266Z,14.60
2022-12-11T22:45:55.216Z,13.02
2022-12-11T22:51:07.469Z,13.87
2022-12-11T22:56:14.732Z,12.98
2022-12-11T23:01:22.848Z,14.97
2022-12-11T23:06:31.084Z,12.32
2022-12-11T23:11:39.137Z,11.80
2022-12-11T23:16:45.220Z,12.40
2022-12-11T23:21:53.083Z,12.32
2022-12-11T23:26:58.356Z,13.13
2022-12-11T23:32:03.695Z,12.90
2022-12-11T23:37:11.527Z,11.43
2022-12-11T23:42:17.090Z,13.10
2022-12-11T23:47:22.659Z,12.88
2022-12-11T23:52:32.117Z,13.40
2022-12-11T23:57:37.613Z,11.95
